Time;durP1;ratioP1;P1;durP2;ratioP2;P2;SDS_P1;SDS_P2;PMS_P1;PMS_P2;Temp;Humidity;BMP_temperature;BMP_pressure;BME280_temperature;BME280_humidity;BME280_pressure;Samples;Min_cycle;Max_cycle;Signal;HPM_P1;HPM_P2
2022/10/20 00:04:33;;;;;;;2.60;0.90;;;;;;;6.34;100.00;102179.81;10599289;28;20100;-76
2022/10/20 00:09:34;;;;;;;0.20;0.20;;;;;;;6.33;100.00;102172.91;10590873;28;20513;-76
2022/10/20 00:14:37;;;;;;;1.15;0.47;;;;;;;6.35;100.00;102176.47;10602999;27;20107;-77
2022/10/20 00:19:38;;;;;;;4.45;0.35;;;;;;;6.33;100.00;102175.47;10606046;27;20103;-76
2022/10/20 00:24:41;;;;;;;0.55;0.20;;;;;;;6.37;100.00;102163.75;10637872;27;20074;-77
2022/10/20 00:29:42;;;;;;;0.43;0.30;;;;;;;6.29;100.00;102140.22;10609413;27;20075;-77
2022/10/20 00:34:44;;;;;;;0.20;0.20;;;;;;;6.27;100.00;102135.81;10618715;27;20053;-75
2022/10/20 00:39:46;;;;;;;0.60;0.22;;;;;;;6.37;100.00;102119.38;10590872;27;20130;-77
2022/10/20 00:44:58;;;;;;;0.35;0.30;;;;;;;6.32;100.00;102112.28;10631720;27;20035;-77
2022/10/20 00:50:33;;;;;;;0.50;0.28;;;;;;;6.35;100.00;102103.91;10611497;27;20146;-77
2022/10/20 00:55:38;;;;;;;0.00;0.00;;;;;;;6.44;100.00;102099.34;10608891;27;20212;-77
2022/10/20 01:00:43;;;;;;;0.90;0.35;;;;;;;6.41;100.00;102088.91;10617469;27;20070;-77
2022/10/20 01:05:44;;;;;;;0.40;0.32;;;;;;;6.35;100.00;102079.22;10605439;27;20051;-77
2022/10/20 01:11:00;;;;;;;0.47;0.47;;;;;;;6.44;100.00;102065.22;10631622;27;20070;-77
2022/10/20 01:16:10;;;;;;;0.03;0.03;;;;;;;6.41;100.00;102060.75;10622146;27;20126;-77
2022/10/20 01:21:51;;;;;;;0.00;0.00;;;;;;;6.39;100.00;102053.78;10601298;27;20071;-77
2022/10/20 01:27:13;;;;;;;0.20;0.20;;;;;;;6.42;100.00;102046.31;10591855;28;20095;-77
2022/10/20 01:32:22;;;;;;;0.30;0.28;;;;;;;6.43;100.00;102054.06;10626564;27;20073;-77
2022/10/20 01:37:24;;;;;;;0.05;0.05;;;;;;;6.38;100.00;102031.53;10620989;27;20043;-77
2022/10/20 01:42:49;;;;;;;0.00;0.00;;;;;;;6.30;100.00;102029.38;10644369;27;20062;-77
2022/10/20 01:47:53;;;;;;;0.25;0.25;;;;;;;6.28;100.00;102009.63;10602752;27;20047;-77
2022/10/20 01:52:58;;;;;;;0.17;0.17;;;;;;;6.37;100.00;102004.19;10621286;27;20031;-77
2022/10/20 01:58:22;;;;;;;0.73;0.57;;;;;;;6.28;100.00;102000.28;10634651;27;20103;-77
2022/10/20 02:03:53;;;;;;;0.10;0.00;;;;;;;6.35;100.00;101997.31;10624492;27;20064;-77
2022/10/20 02:09:00;;;;;;;0.10;0.10;;;;;;;6.30;100.00;101987.56;10613930;27;20461;-77
2022/10/20 02:14:03;;;;;;;1.90;0.82;;;;;;;6.32;100.00;101986.88;10627900;27;20035;-77
2022/10/20 02:19:07;;;;;;;0.20;0.20;;;;;;;6.26;100.00;101980.47;10599714;27;20051;-77
2022/10/20 02:24:12;;;;;;;0.57;0.43;;;;;;;6.37;100.00;101968.34;10614779;27;20035;-77
2022/10/20 02:29:25;;;;;;;0.40;0.40;;;;;;;6.34;100.00;101969.94;10616487;27;20106;-77
2022/10/20 02:34:26;;;;;;;0.15;0.08;;;;;;;6.33;100.00;101952.81;10628905;27;20050;-77
2022/10/20 02:39:28;;;;;;;0.00;0.00;;;;;;;6.35;100.00;101952.88;10626632;27;20089;-78
2022/10/20 02:44:29;;;;;;;0.30;0.30;;;;;;;6.35;100.00;101946.09;10642408;27;20043;-77
2022/10/20 02:49:31;;;;;;;0.05;0.03;;;;;;;6.35;100.00;101938.44;10607543;27;20484;-77
2022/10/20 02:54:32;;;;;;;0.00;0.00;;;;;;;6.32;100.00;101930.56;10623963;27;20523;-77
2022/10/20 02:59:34;;;;;;;2.33;0.82;;;;;;;6.38;100.00;101932.59;10625267;27;20071;-77
2022/10/20 03:04:35;;;;;;;0.28;0.20;;;;;;;6.28;100.00;101923.50;10603777;27;20031;-77
2022/10/20 03:09:37;;;;;;;0.10;0.10;;;;;;;6.31;100.00;101920.22;10624701;27;20084;-77
2022/10/20 03:14:41;;;;;;;0.10;0.10;;;;;;;6.29;100.00;101920.13;10607764;27;20039;-77
2022/10/20 03:19:43;;;;;;;0.20;0.20;;;;;;;6.33;100.00;101922.09;10620891;27;20541;-78
2022/10/20 03:24:44;;;;;;;0.77;0.65;;;;;;;6.27;100.00;101921.72;10621972;27;20474;-78
2022/10/20 03:29:45;;;;;;;0.10;0.10;;;;;;;6.24;100.00;101908.72;10617378;27;20126;-77
2022/10/20 03:34:47;;;;;;;0.15;0.15;;;;;;;6.18;100.00;101910.94;10622640;28;20039;-77
2022/10/20 03:39:49;;;;;;;0.32;0.28;;;;;;;6.18;100.00;101888.78;10615534;28;20070;-77
2022/10/20 03:44:50;;;;;;;0.47;0.20;;;;;;;6.17;100.00;101888.69;10619711;28;20452;-77
2022/10/20 03:49:52;;;;;;;0.30;0.20;;;;;;;6.12;100.00;101897.78;10573700;28;20577;-77
2022/10/20 03:54:53;;;;;;;0.35;0.35;;;;;;;6.17;100.00;101888.69;10633716;27;20035;-77
2022/10/20 03:59:55;;;;;;;0.98;0.65;;;;;;;6.12;100.00;101895.22;10610629;27;20069;-77
2022/10/20 04:04:56;;;;;;;0.47;0.43;;;;;;;6.11;100.00;101883.22;10628549;27;20460;-77
2022/10/20 04:10:00;;;;;;;0.00;0.00;;;;;;;6.14;100.00;101868.06;10625078;27;20093;-77
2022/10/20 04:15:04;;;;;;;0.40;0.30;;;;;;;6.10;100.00;101863.53;10622406;27;20077;-78
2022/10/20 04:20:06;;;;;;;0.47;0.45;;;;;;;6.07;100.00;101851.44;10634315;27;20100;-78
2022/10/20 04:25:08;;;;;;;0.47;0.47;;;;;;;6.09;100.00;101847.31;10632757;27;20066;-77
2022/10/20 04:30:10;;;;;;;0.38;0.38;;;;;;;6.06;100.00;101846.25;10626411;27;20078;-77
2022/10/20 04:35:11;;;;;;;0.55;0.20;;;;;;;6.13;100.00;101836.44;10622449;27;20088;-77
2022/10/20 04:40:13;;;;;;;0.45;0.20;;;;;;;6.16;100.00;101840.88;10611408;27;20084;-76
2022/10/20 04:45:15;;;;;;;0.00;0.00;;;;;;;6.22;100.00;101820.75;10604638;27;20102;-77
2022/10/20 04:50:17;;;;;;;0.32;0.20;;;;;;;6.15;100.00;101814.41;10626916;27;20119;-76
2022/10/20 04:55:31;;;;;;;0.30;0.30;;;;;;;6.20;100.00;101814.69;10617618;27;20463;-77
2022/10/20 05:00:32;;;;;;;1.17;0.47;;;;;;;6.19;100.00;101805.22;10624484;27;20134;-77
2022/10/20 05:05:34;;;;;;;0.45;0.25;;;;;;;6.23;100.00;101802.03;10614021;27;20045;-77
2022/10/20 05:10:35;;;;;;;0.57;0.40;;;;;;;6.28;100.00;101780.19;10582026;27;20130;-77
2022/10/20 05:15:37;;;;;;;1.83;0.88;;;;;;;6.30;100.00;101762.34;10617284;27;20118;-76
2022/10/20 05:20:38;;;;;;;0.38;0.32;;;;;;;6.37;100.00;101758.47;10624851;27;20464;-77
2022/10/20 05:25:47;;;;;;;0.10;0.10;;;;;;;6.40;100.00;101722.78;10621329;27;20039;-77
2022/10/20 05:30:48;;;;;;;0.17;0.15;;;;;;;6.44;100.00;101724.75;10618240;27;20436;-77
2022/10/20 05:35:50;;;;;;;0.03;0.03;;;;;;;6.53;100.00;101722.66;10613570;27;20441;-76
2022/10/20 05:40:51;;;;;;;1.63;0.30;;;;;;;6.57;100.00;101701.59;10625328;27;20047;-78
2022/10/20 05:45:53;;;;;;;0.10;0.10;;;;;;;6.62;100.00;101700.16;10633021;27;20084;-78
2022/10/20 05:50:55;;;;;;;0.50;0.38;;;;;;;6.77;100.00;101717.16;10629145;27;20501;-76
2022/10/20 05:56:04;;;;;;;0.60;0.30;;;;;;;6.81;100.00;101707.16;10598131;27;20522;-78
2022/10/20 06:01:16;;;;;;;0.30;0.30;;;;;;;6.82;100.00;101684.97;10628981;27;20051;-78
2022/10/20 06:06:20;;;;;;;0.10;0.10;;;;;;;6.86;100.00;101688.56;10624879;27;20046;-77
2022/10/20 06:11:22;;;;;;;0.35;0.32;;;;;;;6.94;100.00;101693.34;10618778;27;20057;-78
2022/10/20 06:16:25;;;;;;;4.88;0.40;;;;;;;6.96;100.00;101695.97;10624992;27;20493;-77
2022/10/20 06:21:30;;;;;;;0.52;0.52;;;;;;;7.00;100.00;101677.38;10630349;27;20074;-77
2022/10/20 06:26:37;;;;;;;0.80;0.68;;;;;;;7.01;100.00;101684.28;10624673;27;20043;-77
2022/10/20 06:31:41;;;;;;;0.55;0.30;;;;;;;7.07;100.00;101673.47;10604251;27;20043;-77
2022/10/20 06:36:44;;;;;;;0.22;0.22;;;;;;;7.15;100.00;101672.19;10621420;27;20050;-77
2022/10/20 06:41:50;;;;;;;0.20;0.20;;;;;;;7.19;100.00;101684.34;10615569;27;20149;-77
2022/10/20 06:46:53;;;;;;;0.22;0.17;;;;;;;7.23;100.00;101677.72;10609181;27;20093;-78
2022/10/20 06:51:55;;;;;;;0.65;0.43;;;;;;;7.32;100.00;101675.63;10614148;27;20084;-78
2022/10/20 06:56:56;;;;;;;0.88;0.85;;;;;;;7.50;100.00;101675.69;10618561;27;20043;-78
2022/10/20 07:01:58;;;;;;;1.55;0.95;;;;;;;7.52;100.00;101681.78;10618131;27;20117;-78
2022/10/20 07:06:59;;;;;;;3.10;0.55;;;;;;;7.66;100.00;101681.59;10621991;27;20039;-78
2022/10/20 07:12:01;;;;;;;1.17;0.50;;;;;;;7.62;100.00;101670.31;10648601;27;20042;-78
2022/10/20 07:17:05;;;;;;;0.32;0.22;;;;;;;7.77;100.00;101662.50;10613653;27;20108;-78
2022/10/20 07:22:07;;;;;;;0.75;0.75;;;;;;;7.73;100.00;101647.75;10602956;27;20130;-78
2022/10/20 07:27:09;;;;;;;0.30;0.30;;;;;;;7.79;100.00;101653.19;10611565;27;20474;-78
2022/10/20 07:32:10;;;;;;;1.55;0.55;;;;;;;7.88;100.00;101632.25;10627065;28;20055;-77
2022/10/20 07:37:12;;;;;;;1.15;0.73;;;;;;;7.99;100.00;101614.81;10621798;28;20084;-78
2022/10/20 07:42:13;;;;;;;0.20;0.20;;;;;;;8.13;100.00;101629.16;10629459;28;20100;-78
2022/10/20 07:47:19;;;;;;;0.63;0.55;;;;;;;8.29;100.00;101627.31;10624433;28;20125;-77
2022/10/20 07:52:21;;;;;;;0.47;0.28;;;;;;;8.54;100.00;101612.25;10597617;28;20499;-77
2022/10/20 07:57:22;;;;;;;0.60;0.60;;;;;;;8.72;100.00;101590.78;10622882;28;20056;-77
2022/10/20 08:02:24;;;;;;;0.85;0.38;;;;;;;8.77;100.00;101568.75;10613131;28;20058;-77
2022/10/20 08:07:25;;;;;;;0.73;0.70;;;;;;;8.73;100.00;101561.72;10635545;28;20075;-78
2022/10/20 08:12:27;;;;;;;1.15;0.50;;;;;;;8.94;100.00;101551.47;10625916;28;20074;-78
2022/10/20 08:17:28;;;;;;;0.30;0.30;;;;;;;9.10;100.00;101553.03;10609234;28;20047;-78
2022/10/20 08:22:30;;;;;;;0.28;0.25;;;;;;;9.21;100.00;101541.50;10624551;28;20490;-77
2022/10/20 08:27:31;;;;;;;1.30;0.55;;;;;;;9.29;100.00;101535.78;10614831;28;20047;-78
2022/10/20 08:32:33;;;;;;;0.90;0.80;;;;;;;9.51;100.00;101510.13;10619064;28;20074;-78
2022/10/20 08:37:35;;;;;;;0.22;0.22;;;;;;;9.51;100.00;101502.41;10643762;27;20047;-77
2022/10/20 08:42:43;;;;;;;3.20;0.80;;;;;;;9.80;100.00;101518.13;10644380;27;20047;-78
2022/10/20 08:47:46;;;;;;;0.75;0.32;;;;;;;10.18;100.00;101486.03;10644526;27;20389;-77
2022/10/20 08:52:54;;;;;;;0.65;0.55;;;;;;;10.35;100.00;101460.94;10643965;27;20070;-78
2022/10/20 08:58:01;;;;;;;1.90;0.60;;;;;;;10.57;100.00;101453.16;10613706;27;20043;-78
2022/10/20 09:03:22;;;;;;;4.15;0.43;;;;;;;10.85;100.00;101442.91;10626848;27;20043;-77
2022/10/20 09:08:29;;;;;;;1.83;0.63;;;;;;;10.96;100.00;101431.25;10644090;27;20504;-78
2022/10/20 09:13:31;;;;;;;0.93;0.50;;;;;;;11.06;100.00;101417.81;10623212;27;20035;-78
2022/10/20 09:18:33;;;;;;;0.35;0.35;;;;;;;11.24;100.00;101411.50;10616978;27;20047;-78
2022/10/20 09:23:45;;;;;;;1.35;0.95;;;;;;;11.38;100.00;101405.06;10611174;27;20463;-78
2022/10/20 09:28:49;;;;;;;0.30;0.28;;;;;;;11.51;100.00;101410.59;10636737;27;20043;-78
2022/10/20 09:34:24;;;;;;;1.73;0.30;;;;;;;11.75;100.00;101411.31;10645515;27;20063;-79
2022/10/20 09:39:30;;;;;;;3.25;1.00;;;;;;;12.14;100.00;101388.31;10633249;27;20065;-78
2022/10/20 09:44:38;;;;;;;2.08;1.35;;;;;;;11.94;100.00;101367.97;10626622;27;20098;-79
2022/10/20 09:49:43;;;;;;;1.70;1.15;;;;;;;12.06;100.00;101395.88;10596986;27;20566;-78
2022/10/20 09:54:47;;;;;;;1.25;0.75;;;;;;;11.97;100.00;101393.91;10606036;27;20514;-78
2022/10/20 09:59:51;;;;;;;1.15;0.68;;;;;;;12.01;100.00;101393.16;10597995;27;20039;-78
2022/10/20 10:04:53;;;;;;;0.73;0.68;;;;;;;12.09;100.00;101402.84;10622353;27;20121;-78
2022/10/20 10:10:06;;;;;;;2.53;0.88;;;;;;;12.02;100.00;101404.34;10610862;27;20095;-78
2022/10/20 10:15:29;;;;;;;1.27;0.90;;;;;;;12.12;100.00;101420.97;10612704;27;20401;-78
2022/10/20 10:20:35;;;;;;;4.43;1.02;;;;;;;12.19;100.00;101412.56;10617443;27;20043;-78
2022/10/20 10:25:39;;;;;;;0.77;0.77;;;;;;;12.30;100.00;101390.50;10629877;27;20122;-78
2022/10/20 10:30:41;;;;;;;1.50;0.73;;;;;;;12.44;100.00;101387.41;10633589;27;20054;-78
2022/10/20 10:35:49;;;;;;;1.85;1.20;;;;;;;12.45;100.00;101389.16;10635862;27;20527;-78
2022/10/20 10:40:58;;;;;;;0.50;0.47;;;;;;;12.52;100.00;101393.66;10639141;27;20379;-78
2022/10/20 10:46:06;;;;;;;0.63;0.43;;;;;;;12.61;100.00;101411.97;10625305;27;20035;-78
2022/10/20 10:51:19;;;;;;;3.50;1.17;;;;;;;12.66;100.00;101415.53;10613870;27;20421;-78
2022/10/20 10:56:32;;;;;;;1.63;1.15;;;;;;;12.63;100.00;101407.69;10638425;27;20498;-78
2022/10/20 11:02:01;;;;;;;0.93;0.63;;;;;;;12.66;100.00;101405.22;10638348;27;20529;-78
2022/10/20 11:07:15;;;;;;;0.85;0.70;;;;;;;12.70;100.00;101419.94;10618309;27;20058;-78
2022/10/20 11:12:32;;;;;;;0.85;0.57;;;;;;;12.85;100.00;101426.34;10631411;27;20047;-78
2022/10/20 11:17:36;;;;;;;0.82;0.45;;;;;;;12.96;100.00;101424.91;10620453;27;20076;-78
2022/10/20 11:22:52;;;;;;;0.93;0.47;;;;;;;13.08;100.00;101421.75;10624981;27;20061;-78
2022/10/20 11:27:56;;;;;;;0.60;0.60;;;;;;;13.23;100.00;101408.28;10616448;27;20074;-78
2022/10/20 11:33:04;;;;;;;1.00;0.82;;;;;;;13.31;100.00;101393.81;10623774;27;20043;-78
2022/10/20 11:38:12;;;;;;;2.15;0.80;;;;;;;13.31;100.00;101404.16;10628462;27;20050;-78
2022/10/20 11:43:33;;;;;;;2.13;1.30;;;;;;;13.28;100.00;101417.03;10606762;28;20055;-78
2022/10/20 11:48:42;;;;;;;0.47;0.38;;;;;;;13.20;100.00;101431.50;10588551;28;20052;-78
2022/10/20 11:54:13;;;;;;;0.98;0.70;;;;;;;13.14;100.00;101431.38;10617323;28;20118;-77
2022/10/20 11:59:38;;;;;;;0.55;0.50;;;;;;;13.11;100.00;101431.28;10618381;28;20066;-78
2022/10/20 12:05:04;;;;;;;0.85;0.45;;;;;;;13.05;100.00;101459.59;10614842;28;20126;-77
2022/10/20 12:10:39;;;;;;;1.48;0.70;;;;;;;12.97;100.00;101483.56;10613792;27;20146;-77
2022/10/20 12:15:46;;;;;;;0.73;0.73;;;;;;;12.98;100.00;101495.66;10622163;27;20126;-77
2022/10/20 12:20:51;;;;;;;1.55;0.90;;;;;;;12.97;100.00;101493.00;10636129;27;20035;-78
2022/10/20 12:25:52;;;;;;;2.30;1.15;;;;;;;13.05;100.00;101506.16;10616411;27;20477;-77
2022/10/20 12:31:00;;;;;;;1.25;0.88;;;;;;;12.90;100.00;101519.56;10607045;27;20505;-77
2022/10/20 12:36:16;;;;;;;1.98;0.88;;;;;;;12.83;100.00;101546.97;10621115;27;20077;-77
2022/10/20 12:41:34;;;;;;;3.20;1.25;;;;;;;12.78;100.00;101553.72;10618186;27;20051;-78
2022/10/20 12:46:41;;;;;;;1.30;0.82;;;;;;;12.52;100.00;101533.22;10620654;27;20115;-79
2022/10/20 12:52:04;;;;;;;1.70;1.40;;;;;;;12.38;100.00;101559.53;10624378;27;20134;-79
2022/10/20 12:57:40;;;;;;;0.43;0.22;;;;;;;12.33;100.00;101580.91;10626602;27;20047;-80
2022/10/20 13:02:48;;;;;;;1.40;0.80;;;;;;;12.32;100.00;101585.16;10599521;27;20039;-79
2022/10/20 13:07:51;;;;;;;0.50;0.50;;;;;;;12.22;100.00;101606.41;10595682;27;20055;-79
2022/10/20 13:13:19;;;;;;;1.23;1.13;;;;;;;12.33;100.00;101599.84;10579903;28;20043;-79
2022/10/20 13:18:29;;;;;;;5.15;2.60;;;;;;;12.36;100.00;101612.88;10620915;27;20110;-80
2022/10/20 13:23:45;;;;;;;4.45;2.75;;;;;;;12.42;100.00;101662.97;10608254;27;20055;-79
2022/10/20 13:28:48;;;;;;;3.13;1.35;;;;;;;12.52;100.00;101675.34;10611113;27;20390;-79
2022/10/20 13:34:20;;;;;;;5.95;2.08;;;;;;;12.50;100.00;101679.59;10613475;27;20046;-79
2022/10/20 13:39:40;;;;;;;3.78;2.03;;;;;;;12.64;100.00;101688.66;10634650;27;20498;-79
2022/10/20 13:45:01;;;;;;;2.15;1.30;;;;;;;12.84;100.00;101688.38;10611120;27;20039;-79
2022/10/20 13:50:09;;;;;;;;;;;;;;;13.02;100.00;101678.53;10601619;27;20573;-80
2022/10/20 13:55:18;;;;;;;2.17;1.30;;;;;;;13.05;100.00;101676.88;10626620;27;19926;-79
2022/10/20 14:00:31;;;;;;;3.50;1.80;;;;;;;13.00;100.00;101675.03;10624328;27;20114;-80
2022/10/20 14:05:38;;;;;;;3.35;1.65;;;;;;;12.90;100.00;101675.63;10596755;27;20042;-80
2022/10/20 14:11:07;;;;;;;4.00;2.90;;;;;;;12.98;100.00;101681.88;10622962;27;20092;-79
2022/10/20 14:16:18;;;;;;;6.50;1.35;;;;;;;13.06;100.00;101689.84;10625166;27;20043;-79
2022/10/20 14:21:20;;;;;;;1.60;1.10;;;;;;;13.14;100.00;101690.09;10621741;27;20118;-79
2022/10/20 14:26:23;;;;;;;1.38;1.08;;;;;;;13.26;100.00;101667.13;10625890;27;20062;-79
2022/10/20 14:31:25;;;;;;;1.67;1.45;;;;;;;13.37;100.00;101648.41;10629440;27;20097;-79
2022/10/20 14:36:28;;;;;;;2.00;1.27;;;;;;;13.59;100.00;101629.16;10630658;27;20042;-79
2022/10/20 14:41:34;;;;;;;3.30;2.17;;;;;;;13.47;100.00;101603.84;10604143;27;20059;-80
2022/10/20 14:46:43;;;;;;;6.97;3.25;;;;;;;13.33;100.00;101601.75;10628979;27;20070;-79
2022/10/20 14:51:57;;;;;;;1.88;1.38;;;;;;;13.35;100.00;101604.38;10631125;27;20051;-79
2022/10/20 14:57:08;;;;;;;1.15;0.98;;;;;;;13.45;100.00;101616.75;10616280;27;20069;-80
2022/10/20 15:02:17;;;;;;;2.97;1.30;;;;;;;13.52;100.00;101619.50;10628710;27;20126;-80
2022/10/20 15:07:25;;;;;;;4.38;1.35;;;;;;;13.83;100.00;101622.84;10609467;27;20552;-79
2022/10/20 15:12:32;;;;;;;5.55;1.20;;;;;;;14.00;100.00;101610.28;10611452;27;20074;-78
2022/10/20 15:17:41;;;;;;;2.38;1.33;;;;;;;14.06;100.00;101593.19;10617628;27;20246;-79
2022/10/20 15:22:43;;;;;;;3.40;0.90;;;;;;;13.99;100.00;101570.56;10621947;27;20035;-79
2022/10/20 15:27:44;;;;;;;0.93;0.82;;;;;;;13.98;100.00;101562.72;10598499;27;20047;-78
2022/10/20 15:32:46;;;;;;;2.92;0.95;;;;;;;13.95;100.00;101559.25;10614947;27;20050;-79
2022/10/20 15:37:51;;;;;;;2.72;0.90;;;;;;;13.90;100.00;101532.34;10620767;27;20046;-79
2022/10/20 15:42:52;;;;;;;1.23;0.52;;;;;;;13.91;100.00;101539.28;10607844;28;20489;-79
2022/10/20 15:47:54;;;;;;;3.25;1.98;;;;;;;13.89;100.00;101525.41;10631174;27;20092;-79
2022/10/20 15:52:55;;;;;;;2.70;2.15;;;;;;;13.78;100.00;101534.69;10639248;27;20043;-79
2022/10/20 15:57:57;;;;;;;16.92;5.80;;;;;;;13.72;100.00;101532.81;10621592;27;20431;-79
2022/10/20 16:02:59;;;;;;;7.45;3.40;;;;;;;13.62;100.00;101534.31;10639842;27;20046;-79
2022/10/20 16:08:00;;;;;;;5.10;2.85;;;;;;;13.60;100.00;101529.94;10646070;27;20039;-79
2022/10/20 16:13:04;;;;;;;2.22;1.52;;;;;;;13.59;100.00;101525.59;10622647;27;20047;-79
2022/10/20 16:18:06;;;;;;;3.33;3.03;;;;;;;13.47;100.00;101526.19;10639930;27;20430;-79
2022/10/20 16:23:10;;;;;;;4.70;3.58;;;;;;;13.52;100.00;101519.41;10617494;27;20043;-79
2022/10/20 16:28:12;;;;;;;2.55;1.13;;;;;;;13.51;100.00;101506.44;10617277;27;20058;-79
2022/10/20 16:33:13;;;;;;;1.77;0.93;;;;;;;13.36;100.00;101506.91;10622112;27;20051;-79
2022/10/20 16:38:15;;;;;;;2.60;2.05;;;;;;;13.29;100.00;101505.88;10641820;27;20047;-79
2022/10/20 16:43:16;;;;;;;3.55;1.17;;;;;;;13.35;100.00;101500.84;10641020;27;20513;-79
2022/10/20 16:48:18;;;;;;;2.92;1.20;;;;;;;13.22;100.00;101504.84;10648890;27;20046;-79
2022/10/20 16:53:19;;;;;;;0.80;0.50;;;;;;;13.14;100.00;101490.88;10638801;27;20062;-79
2022/10/20 16:58:22;;;;;;;0.90;0.75;;;;;;;13.20;100.00;101496.19;10641919;27;20043;-79
2022/10/20 17:03:24;;;;;;;0.55;0.47;;;;;;;13.15;100.00;101488.31;10624790;27;20063;-79
2022/10/20 17:08:26;;;;;;;1.75;0.77;;;;;;;13.16;100.00;101489.19;10639528;27;20103;-79
2022/10/20 17:13:29;;;;;;;6.72;3.40;;;;;;;13.15;100.00;101488.31;10640961;27;20039;-80
2022/10/20 17:18:30;;;;;;;3.42;2.95;;;;;;;13.15;100.00;101487.41;10626379;27;20054;-79
2022/10/20 17:23:35;;;;;;;2.95;2.22;;;;;;;13.09;100.00;101474.34;10638739;27;20039;-80
2022/10/20 17:28:43;;;;;;;6.18;4.45;;;;;;;13.09;100.00;101476.94;10628987;27;20039;-80
2022/10/20 17:33:45;;;;;;;3.85;2.47;;;;;;;12.98;100.00;101477.56;10638350;27;20039;-79
2022/10/20 17:38:46;;;;;;;3.92;2.53;;;;;;;13.12;100.00;101487.38;10640481;27;20529;-79
2022/10/20 17:43:48;;;;;;;2.53;1.75;;;;;;;13.04;100.00;101474.22;10622301;27;20032;-79
2022/10/20 17:48:49;;;;;;;0.77;0.77;;;;;;;13.15;100.00;101474.50;10619790;27;20126;-80
2022/10/20 17:53:54;;;;;;;1.95;1.10;;;;;;;13.10;100.00;101464.06;10619904;27;20035;-79
2022/10/20 17:58:57;;;;;;;1.92;1.35;;;;;;;13.16;100.00;101460.72;10640008;27;20134;-79
2022/10/20 18:04:09;;;;;;;2.35;1.80;;;;;;;13.07;100.00;101451.03;10640196;27;20042;-80
2022/10/20 18:09:16;;;;;;;4.10;1.60;;;;;;;13.05;100.00;101449.25;10634946;27;20074;-80
2022/10/20 18:14:18;;;;;;;3.95;1.05;;;;;;;13.06;100.00;101430.31;10621269;27;20043;-79
2022/10/20 18:19:20;;;;;;;1.08;0.88;;;;;;;12.97;100.00;101437.00;10649805;27;20046;-79
2022/10/20 18:24:21;;;;;;;2.20;1.38;;;;;;;12.98;100.00;101437.88;10624155;27;20074;-80
2022/10/20 18:29:24;;;;;;;2.75;1.73;;;;;;;12.85;100.00;101437.56;10625583;27;20047;-80
2022/10/20 18:34:26;;;;;;;2.05;1.30;;;;;;;12.89;100.00;101433.34;10607766;27;20565;-80
2022/10/20 18:39:30;;;;;;;1.65;1.20;;;;;;;12.90;100.00;101435.09;10628280;27;20058;-80
2022/10/20 18:44:32;;;;;;;0.95;0.50;;;;;;;12.90;100.00;101432.53;10627295;27;20054;-80
2022/10/20 18:49:34;;;;;;;2.00;1.58;;;;;;;12.93;100.00;101424.81;10627663;27;20039;-79
2022/10/20 18:54:35;;;;;;;3.60;1.40;;;;;;;12.94;100.00;101411.06;10609859;27;20074;-80
2022/10/20 18:59:39;;;;;;;3.42;1.02;;;;;;;12.94;100.00;101400.72;10630633;27;20050;-80
2022/10/20 19:04:40;;;;;;;5.25;1.80;;;;;;;12.90;100.00;101409.25;10633490;27;20043;-79
2022/10/20 19:09:42;;;;;;;0.63;0.63;;;;;;;12.90;100.00;101419.59;10629846;27;20095;-79
2022/10/20 19:14:43;;;;;;;2.00;0.75;;;;;;;12.93;100.00;101413.63;10637286;27;20769;-79
2022/10/20 19:19:45;;;;;;;1.73;1.13;;;;;;;12.93;100.00;101406.72;10633644;27;20050;-80
2022/10/20 19:24:46;;;;;;;1.17;0.93;;;;;;;13.04;100.00;101398.34;10616163;27;20047;-79
2022/10/20 19:29:48;;;;;;;2.75;1.02;;;;;;;13.02;100.00;101378.50;10625220;27;20355;-79
2022/10/20 19:34:50;;;;;;;1.85;0.77;;;;;;;12.97;100.00;101380.09;10642295;27;20039;-78
2022/10/20 19:39:51;;;;;;;1.00;0.75;;;;;;;13.01;100.00;101374.16;10617701;27;20402;-80
2022/10/20 19:44:54;;;;;;;1.90;1.08;;;;;;;13.02;100.00;101360.38;10617681;27;20042;-80
2022/10/20 19:49:56;;;;;;;1.85;1.17;;;;;;;13.02;100.00;101356.94;10630284;28;20072;-80
2022/10/20 19:54:57;;;;;;;1.38;0.68;;;;;;;12.98;100.00;101353.41;10623499;28;20427;-80
2022/10/20 19:59:59;;;;;;;1.65;1.13;;;;;;;12.93;100.00;101341.19;10620338;28;20062;-80
2022/10/20 20:05:03;;;;;;;0.45;0.45;;;;;;;12.84;100.00;101353.06;10621118;28;20039;-80
2022/10/20 20:10:05;;;;;;;2.22;1.35;;;;;;;12.70;100.00;101342.38;10613498;28;20042;-80
2022/10/20 20:15:06;;;;;;;0.88;0.77;;;;;;;12.67;100.00;101349.19;10612046;28;20461;-80
2022/10/20 20:20:08;;;;;;;1.63;0.63;;;;;;;12.64;100.00;101350.00;10609792;28;20391;-80
2022/10/20 20:25:10;;;;;;;1.55;1.02;;;;;;;12.61;100.00;101349.94;10626733;28;20040;-80
2022/10/20 20:30:11;;;;;;;1.23;0.75;;;;;;;12.70;100.00;101363.06;10619181;28;20077;-80
2022/10/20 20:35:13;;;;;;;1.05;0.73;;;;;;;12.85;100.00;101359.09;10650272;27;20035;-80
2022/10/20 20:40:17;;;;;;;2.25;0.65;;;;;;;12.89;100.00;101353.19;10650059;27;20051;-80
2022/10/20 20:45:18;;;;;;;3.00;2.28;;;;;;;12.90;100.00;101349.75;10636657;27;20134;-80
2022/10/20 20:50:21;;;;;;;2.58;1.30;;;;;;;12.88;100.00;101343.69;10630565;27;20043;-80
2022/10/20 20:55:27;;;;;;;1.50;0.90;;;;;;;12.90;100.00;101349.75;10628942;27;20070;-79
2022/10/20 21:00:28;;;;;;;0.77;0.68;;;;;;;12.91;100.00;101348.94;10646489;27;20043;-79
2022/10/20 21:05:30;;;;;;;2.13;0.98;;;;;;;12.89;100.00;101337.66;10620199;27;20088;-80
2022/10/20 21:10:34;;;;;;;0.50;0.50;;;;;;;12.87;100.00;101334.16;10656170;27;20047;-79
2022/10/20 21:15:35;;;;;;;1.10;0.82;;;;;;;12.85;100.00;101346.19;10663924;27;20088;-80
2022/10/20 21:20:37;;;;;;;5.03;1.60;;;;;;;12.74;100.00;101339.88;10652291;27;20049;-80
2022/10/20 21:25:44;;;;;;;1.58;1.25;;;;;;;12.68;100.00;101351.84;10617498;27;20131;-79
2022/10/20 21:30:46;;;;;;;0.90;0.77;;;;;;;12.61;100.00;101357.69;10606638;27;20047;-80
2022/10/20 21:35:47;;;;;;;3.58;0.98;;;;;;;12.58;100.00;101349.84;10615356;27;20047;-80
2022/10/20 21:40:49;;;;;;;1.50;0.82;;;;;;;12.53;100.00;101344.56;10611139;27;20823;-80
2022/10/20 21:45:50;;;;;;;1.52;0.70;;;;;;;12.44;100.00;101356.38;10631237;27;20527;-80
2022/10/20 21:50:52;;;;;;;1.33;0.85;;;;;;;12.52;100.00;101367.78;10640509;27;20072;-80
2022/10/20 21:55:53;;;;;;;1.73;1.40;;;;;;;12.46;100.00;101375.41;10637196;27;20043;-80
2022/10/20 22:00:55;;;;;;;2.20;0.38;;;;;;;12.46;100.00;101386.59;10620150;27;20544;-80
2022/10/20 22:06:00;;;;;;;2.17;1.23;;;;;;;12.43;100.00;101380.47;10607875;27;20522;-80
2022/10/20 22:11:10;;;;;;;1.70;1.02;;;;;;;12.48;100.00;101394.38;10625633;27;20043;-80
2022/10/20 22:16:14;;;;;;;4.07;1.45;;;;;;;12.42;100.00;101395.13;10628130;27;20793;-79
2022/10/20 22:21:17;;;;;;;1.40;0.68;;;;;;;12.44;100.00;101392.56;10627342;27;20054;-79
2022/10/20 22:26:19;;;;;;;0.32;0.28;;;;;;;12.43;100.00;101390.81;10642100;27;20031;-80
2022/10/20 22:31:22;;;;;;;0.43;0.38;;;;;;;12.35;100.00;101386.31;10610912;27;20069;-79
2022/10/20 22:36:24;;;;;;;1.65;1.33;;;;;;;12.37;100.00;101376.91;10645567;27;20043;-80
2022/10/20 22:41:26;;;;;;;1.98;0.82;;;;;;;12.38;100.00;101372.59;10647556;27;20478;-80
2022/10/20 22:46:28;;;;;;;0.93;0.52;;;;;;;12.39;100.00;101361.44;10643121;27;20043;-80
2022/10/20 22:51:29;;;;;;;1.75;0.77;;;;;;;12.48;100.00;101364.25;10619202;27;20047;-80
2022/10/20 22:56:31;;;;;;;1.00;0.65;;;;;;;12.52;100.00;101376.41;10628541;27;20036;-80
2022/10/20 23:01:32;;;;;;;0.65;0.47;;;;;;;12.52;100.00;101362.63;10630471;27;20065;-80
2022/10/20 23:06:40;;;;;;;1.55;0.98;;;;;;;12.58;100.00;101360.19;10649496;27;20054;-79
2022/10/20 23:11:42;;;;;;;0.60;0.60;;;;;;;12.70;100.00;101359.63;10656320;27;20031;-79
2022/10/20 23:16:43;;;;;;;0.98;0.77;;;;;;;12.73;100.00;101364.88;10630042;27;20031;-79